sensor_id;sensor_type;location;lat;lon;timestamp;P1;durP1;ratioP1;P2;durP2;ratioP2
5805;SDS011;2929;50.810;8.342;2022-09-09T00:00:53;6.00;;;2.03;;
5805;SDS011;2929;50.810;8.342;2022-09-09T00:03:26;3.43;;;1.60;;
5805;SDS011;2929;50.810;8.342;2022-09-09T00:06:02;2.20;;;1.80;;
5805;SDS011;2929;50.810;8.342;2022-09-09T00:08:36;2.87;;;1.70;;
5805;SDS011;2929;50.810;8.342;2022-09-09T00:11:10;3.10;;;1.70;;
5805;SDS011;2929;50.810;8.342;2022-09-09T00:13:46;4.50;;;2.20;;
5805;SDS011;2929;50.810;8.342;2022-09-09T00:16:17;5.90;;;2.47;;
5805;SDS011;2929;50.810;8.342;2022-09-09T00:18:50;6.10;;;2.20;;
5805;SDS011;2929;50.810;8.342;2022-09-09T00:21:23;3.10;;;1.67;;
5805;SDS011;2929;50.810;8.342;2022-09-09T00:23:57;4.63;;;1.70;;
5805;SDS011;2929;50.810;8.342;2022-09-09T00:26:27;6.83;;;2.03;;
5805;SDS011;2929;50.810;8.342;2022-09-09T00:29:00;1.83;;;1.60;;
5805;SDS011;2929;50.810;8.342;2022-09-09T00:31:32;4.33;;;1.37;;
5805;SDS011;2929;50.810;8.342;2022-09-09T00:34:05;5.47;;;2.10;;
5805;SDS011;2929;50.810;8.342;2022-09-09T00:36:39;6.87;;;2.10;;
5805;SDS011;2929;50.810;8.342;2022-09-09T00:39:09;4.97;;;1.93;;
5805;SDS011;2929;50.810;8.342;2022-09-09T00:41:55;4.03;;;1.93;;
5805;SDS011;2929;50.810;8.342;2022-09-09T00:44:37;6.27;;;2.20;;
5805;SDS011;2929;50.810;8.342;2022-09-09T00:47:17;6.60;;;2.30;;
5805;SDS011;2929;50.810;8.342;2022-09-09T00:50:08;3.00;;;1.90;;
5805;SDS011;2929;50.810;8.342;2022-09-09T00:52:44;5.20;;;1.90;;
5805;SDS011;2929;50.810;8.342;2022-09-09T00:55:19;3.97;;;1.90;;
5805;SDS011;2929;50.810;8.342;2022-09-09T00:57:51;3.23;;;1.93;;
5805;SDS011;2929;50.810;8.342;2022-09-09T01:00:22;5.23;;;1.70;;
5805;SDS011;2929;50.810;8.342;2022-09-09T01:02:58;4.70;;;2.30;;
5805;SDS011;2929;50.810;8.342;2022-09-09T01:05:33;2.43;;;1.57;;
5805;SDS011;2929;50.810;8.342;2022-09-09T01:08:08;2.77;;;1.50;;
5805;SDS011;2929;50.810;8.342;2022-09-09T01:10:43;6.13;;;2.80;;
5805;SDS011;2929;50.810;8.342;2022-09-09T01:13:18;2.87;;;1.70;;
5805;SDS011;2929;50.810;8.342;2022-09-09T01:15:51;4.00;;;1.80;;
5805;SDS011;2929;50.810;8.342;2022-09-09T01:18:20;2.53;;;1.57;;
5805;SDS011;2929;50.810;8.342;2022-09-09T01:20:54;2.37;;;1.60;;
5805;SDS011;2929;50.810;8.342;2022-09-09T01:23:34;5.27;;;1.97;;
5805;SDS011;2929;50.810;8.342;2022-09-09T01:26:27;5.13;;;1.53;;
5805;SDS011;2929;50.810;8.342;2022-09-09T01:29:00;4.30;;;2.13;;
5805;SDS011;2929;50.810;8.342;2022-09-09T01:31:35;3.07;;;1.40;;
5805;SDS011;2929;50.810;8.342;2022-09-09T01:34:09;4.03;;;2.00;;
5805;SDS011;2929;50.810;8.342;2022-09-09T01:36:38;2.90;;;1.80;;
5805;SDS011;2929;50.810;8.342;2022-09-09T01:39:10;3.80;;;1.73;;
5805;SDS011;2929;50.810;8.342;2022-09-09T01:41:40;3.40;;;2.17;;
5805;SDS011;2929;50.810;8.342;2022-09-09T01:44:11;6.43;;;2.27;;
5805;SDS011;2929;50.810;8.342;2022-09-09T01:46:42;8.50;;;2.47;;
5805;SDS011;2929;50.810;8.342;2022-09-09T01:49:16;3.30;;;2.07;;
5805;SDS011;2929;50.810;8.342;2022-09-09T01:51:44;6.07;;;2.50;;
5805;SDS011;2929;50.810;8.342;2022-09-09T01:54:14;3.30;;;1.80;;
5805;SDS011;2929;50.810;8.342;2022-09-09T01:56:46;5.83;;;4.00;;
5805;SDS011;2929;50.810;8.342;2022-09-09T01:59:24;2.57;;;1.83;;
5805;SDS011;2929;50.810;8.342;2022-09-09T02:02:07;3.73;;;2.13;;
5805;SDS011;2929;50.810;8.342;2022-09-09T02:04:43;8.40;;;2.23;;
5805;SDS011;2929;50.810;8.342;2022-09-09T02:07:21;2.77;;;1.97;;
5805;SDS011;2929;50.810;8.342;2022-09-09T02:10:09;4.10;;;2.37;;
5805;SDS011;2929;50.810;8.342;2022-09-09T02:12:53;3.63;;;2.10;;
5805;SDS011;2929;50.810;8.342;2022-09-09T02:15:26;5.03;;;2.20;;
5805;SDS011;2929;50.810;8.342;2022-09-09T02:17:57;8.33;;;2.17;;
5805;SDS011;2929;50.810;8.342;2022-09-09T02:20:27;3.10;;;1.80;;
5805;SDS011;2929;50.810;8.342;2022-09-09T02:22:58;4.97;;;2.40;;
5805;SDS011;2929;50.810;8.342;2022-09-09T02:25:28;5.63;;;2.20;;
5805;SDS011;2929;50.810;8.342;2022-09-09T02:28:05;7.53;;;2.80;;
5805;SDS011;2929;50.810;8.342;2022-09-09T02:30:34;5.70;;;1.93;;
5805;SDS011;2929;50.810;8.342;2022-09-09T02:33:04;6.40;;;2.37;;
5805;SDS011;2929;50.810;8.342;2022-09-09T02:35:41;4.67;;;2.00;;
5805;SDS011;2929;50.810;8.342;2022-09-09T02:38:13;2.80;;;1.70;;
5805;SDS011;2929;50.810;8.342;2022-09-09T02:40:53;3.20;;;2.10;;
5805;SDS011;2929;50.810;8.342;2022-09-09T02:43:21;4.03;;;2.27;;
5805;SDS011;2929;50.810;8.342;2022-09-09T02:45:51;6.67;;;2.00;;
5805;SDS011;2929;50.810;8.342;2022-09-09T02:48:25;7.63;;;2.13;;
5805;SDS011;2929;50.810;8.342;2022-09-09T02:51:02;4.70;;;1.90;;
5805;SDS011;2929;50.810;8.342;2022-09-09T02:53:38;4.17;;;2.13;;
5805;SDS011;2929;50.810;8.342;2022-09-09T02:56:13;5.60;;;2.10;;
5805;SDS011;2929;50.810;8.342;2022-09-09T02:58:47;5.77;;;3.00;;
5805;SDS011;2929;50.810;8.342;2022-09-09T03:01:14;6.03;;;3.10;;
5805;SDS011;2929;50.810;8.342;2022-09-09T03:03:42;6.07;;;2.87;;
5805;SDS011;2929;50.810;8.342;2022-09-09T03:06:14;5.63;;;2.90;;
5805;SDS011;2929;50.810;8.342;2022-09-09T03:08:45;8.30;;;2.73;;
5805;SDS011;2929;50.810;8.342;2022-09-09T03:11:16;6.33;;;3.73;;
5805;SDS011;2929;50.810;8.342;2022-09-09T03:13:43;4.87;;;2.57;;
5805;SDS011;2929;50.810;8.342;2022-09-09T03:16:11;4.70;;;2.47;;
5805;SDS011;2929;50.810;8.342;2022-09-09T03:18:44;8.27;;;2.80;;
5805;SDS011;2929;50.810;8.342;2022-09-09T03:21:11;7.87;;;2.57;;
5805;SDS011;2929;50.810;8.342;2022-09-09T03:23:40;6.10;;;2.53;;
5805;SDS011;2929;50.810;8.342;2022-09-09T03:26:08;8.37;;;2.40;;
5805;SDS011;2929;50.810;8.342;2022-09-09T03:28:42;5.83;;;3.17;;
5805;SDS011;2929;50.810;8.342;2022-09-09T03:31:13;9.03;;;3.20;;
5805;SDS011;2929;50.810;8.342;2022-09-09T03:33:41;6.80;;;2.87;;
5805;SDS011;2929;50.810;8.342;2022-09-09T03:36:12;10.20;;;3.10;;
5805;SDS011;2929;50.810;8.342;2022-09-09T03:38:39;4.13;;;2.63;;
5805;SDS011;2929;50.810;8.342;2022-09-09T03:41:06;6.93;;;2.77;;
5805;SDS011;2929;50.810;8.342;2022-09-09T03:43:34;5.30;;;2.70;;
5805;SDS011;2929;50.810;8.342;2022-09-09T03:46:03;3.90;;;2.53;;
5805;SDS011;2929;50.810;8.342;2022-09-09T03:48:31;9.27;;;2.53;;
5805;SDS011;2929;50.810;8.342;2022-09-09T03:50:59;4.43;;;2.57;;
5805;SDS011;2929;50.810;8.342;2022-09-09T03:53:30;5.90;;;2.43;;
5805;SDS011;2929;50.810;8.342;2022-09-09T03:55:59;7.23;;;2.63;;
5805;SDS011;2929;50.810;8.342;2022-09-09T03:58:27;3.93;;;2.30;;
5805;SDS011;2929;50.810;8.342;2022-09-09T04:01:01;2.47;;;2.20;;
5805;SDS011;2929;50.810;8.342;2022-09-09T04:03:31;4.77;;;2.53;;
5805;SDS011;2929;50.810;8.342;2022-09-09T04:05:59;9.50;;;2.20;;
5805;SDS011;2929;50.810;8.342;2022-09-09T04:08:29;8.57;;;2.03;;
5805;SDS011;2929;50.810;8.342;2022-09-09T04:10:58;4.07;;;2.40;;
5805;SDS011;2929;50.810;8.342;2022-09-09T04:13:27;5.33;;;2.17;;
5805;SDS011;2929;50.810;8.342;2022-09-09T04:15:57;2.33;;;2.13;;
5805;SDS011;2929;50.810;8.342;2022-09-09T04:18:25;8.13;;;2.57;;
5805;SDS011;2929;50.810;8.342;2022-09-09T04:20:54;3.23;;;2.07;;
5805;SDS011;2929;50.810;8.342;2022-09-09T04:23:24;8.73;;;2.23;;
5805;SDS011;2929;50.810;8.342;2022-09-09T04:25:55;4.23;;;2.90;;
5805;SDS011;2929;50.810;8.342;2022-09-09T04:28:25;9.17;;;3.00;;
5805;SDS011;2929;50.810;8.342;2022-09-09T04:30:53;4.03;;;2.80;;
5805;SDS011;2929;50.810;8.342;2022-09-09T04:33:21;5.33;;;3.40;;
5805;SDS011;2929;50.810;8.342;2022-09-09T04:35:49;6.83;;;2.60;;
5805;SDS011;2929;50.810;8.342;2022-09-09T04:38:20;9.10;;;2.77;;
5805;SDS011;2929;50.810;8.342;2022-09-09T04:40:49;14.03;;;3.77;;
5805;SDS011;2929;50.810;8.342;2022-09-09T04:43:19;10.90;;;3.40;;
5805;SDS011;2929;50.810;8.342;2022-09-09T04:45:48;10.40;;;3.30;;
5805;SDS011;2929;50.810;8.342;2022-09-09T04:48:19;16.67;;;4.30;;
5805;SDS011;2929;50.810;8.342;2022-09-09T04:50:55;6.67;;;3.70;;
5805;SDS011;2929;50.810;8.342;2022-09-09T04:53:25;10.33;;;3.83;;
5805;SDS011;2929;50.810;8.342;2022-09-09T04:55:53;7.07;;;2.77;;
5805;SDS011;2929;50.810;8.342;2022-09-09T04:58:28;21.77;;;4.20;;
5805;SDS011;2929;50.810;8.342;2022-09-09T05:01:01;6.30;;;3.37;;
5805;SDS011;2929;50.810;8.342;2022-09-09T05:03:30;8.80;;;2.80;;
5805;SDS011;2929;50.810;8.342;2022-09-09T05:06:01;21.80;;;4.40;;
5805;SDS011;2929;50.810;8.342;2022-09-09T05:08:31;11.50;;;3.90;;
5805;SDS011;2929;50.810;8.342;2022-09-09T05:10:58;12.60;;;4.17;;
5805;SDS011;2929;50.810;8.342;2022-09-09T05:13:26;20.00;;;4.33;;
5805;SDS011;2929;50.810;8.342;2022-09-09T05:15:53;8.80;;;3.67;;
5805;SDS011;2929;50.810;8.342;2022-09-09T05:18:22;17.17;;;3.57;;
5805;SDS011;2929;50.810;8.342;2022-09-09T05:20:49;9.97;;;3.90;;
5805;SDS011;2929;50.810;8.342;2022-09-09T05:23:16;10.20;;;3.63;;
5805;SDS011;2929;50.810;8.342;2022-09-09T05:25:52;9.87;;;3.57;;
5805;SDS011;2929;50.810;8.342;2022-09-09T05:28:22;6.23;;;2.63;;
5805;SDS011;2929;50.810;8.342;2022-09-09T05:30:58;6.87;;;2.90;;
5805;SDS011;2929;50.810;8.342;2022-09-09T05:33:30;10.97;;;3.30;;
5805;SDS011;2929;50.810;8.342;2022-09-09T05:35:59;9.93;;;2.97;;
5805;SDS011;2929;50.810;8.342;2022-09-09T05:38:28;6.17;;;2.87;;
5805;SDS011;2929;50.810;8.342;2022-09-09T05:40:57;7.40;;;2.80;;
5805;SDS011;2929;50.810;8.342;2022-09-09T05:43:25;11.87;;;3.57;;
5805;SDS011;2929;50.810;8.342;2022-09-09T05:46:05;11.70;;;3.30;;
5805;SDS011;2929;50.810;8.342;2022-09-09T05:48:34;10.93;;;3.30;;
5805;SDS011;2929;50.810;8.342;2022-09-09T05:51:03;17.73;;;3.40;;
5805;SDS011;2929;50.810;8.342;2022-09-09T05:53:32;7.77;;;3.10;;
5805;SDS011;2929;50.810;8.342;2022-09-09T05:56:02;14.83;;;2.80;;
5805;SDS011;2929;50.810;8.342;2022-09-09T05:58:32;12.10;;;3.57;;
5805;SDS011;2929;50.810;8.342;2022-09-09T06:01:03;10.07;;;3.10;;
5805;SDS011;2929;50.810;8.342;2022-09-09T06:03:32;6.20;;;2.67;;
5805;SDS011;2929;50.810;8.342;2022-09-09T06:06:00;4.80;;;2.73;;
5805;SDS011;2929;50.810;8.342;2022-09-09T06:08:30;8.53;;;1.87;;
5805;SDS011;2929;50.810;8.342;2022-09-09T06:11:02;8.90;;;2.37;;
5805;SDS011;2929;50.810;8.342;2022-09-09T06:13:30;6.70;;;2.63;;
5805;SDS011;2929;50.810;8.342;2022-09-09T06:15:58;4.20;;;2.07;;
5805;SDS011;2929;50.810;8.342;2022-09-09T06:18:26;10.90;;;2.33;;
5805;SDS011;2929;50.810;8.342;2022-09-09T06:20:56;13.90;;;2.80;;
5805;SDS011;2929;50.810;8.342;2022-09-09T06:23:25;6.33;;;2.03;;
5805;SDS011;2929;50.810;8.342;2022-09-09T06:26:01;6.53;;;2.50;;
5805;SDS011;2929;50.810;8.342;2022-09-09T06:28:31;8.83;;;2.30;;
5805;SDS011;2929;50.810;8.342;2022-09-09T06:31:02;3.37;;;1.83;;
5805;SDS011;2929;50.810;8.342;2022-09-09T06:33:32;12.77;;;2.23;;
5805;SDS011;2929;50.810;8.342;2022-09-09T06:36:01;5.00;;;1.70;;
5805;SDS011;2929;50.810;8.342;2022-09-09T06:38:31;3.83;;;1.87;;
5805;SDS011;2929;50.810;8.342;2022-09-09T06:40:59;6.47;;;1.83;;
5805;SDS011;2929;50.810;8.342;2022-09-09T06:43:29;3.00;;;1.73;;
5805;SDS011;2929;50.810;8.342;2022-09-09T06:45:57;6.37;;;1.67;;
5805;SDS011;2929;50.810;8.342;2022-09-09T06:48:25;9.83;;;1.43;;
5805;SDS011;2929;50.810;8.342;2022-09-09T06:51:00;10.17;;;2.13;;
5805;SDS011;2929;50.810;8.342;2022-09-09T06:53:29;7.43;;;2.30;;
5805;SDS011;2929;50.810;8.342;2022-09-09T06:55:59;10.27;;;1.77;;
5805;SDS011;2929;50.810;8.342;2022-09-09T06:58:29;6.67;;;1.60;;
5805;SDS011;2929;50.810;8.342;2022-09-09T07:01:03;4.13;;;1.63;;
5805;SDS011;2929;50.810;8.342;2022-09-09T07:03:31;5.77;;;1.33;;
5805;SDS011;2929;50.810;8.342;2022-09-09T07:05:59;6.73;;;1.53;;
5805;SDS011;2929;50.810;8.342;2022-09-09T07:08:27;8.07;;;1.63;;
5805;SDS011;2929;50.810;8.342;2022-09-09T07:11:01;7.27;;;1.60;;
5805;SDS011;2929;50.810;8.342;2022-09-09T07:13:31;6.63;;;1.33;;
5805;SDS011;2929;50.810;8.342;2022-09-09T07:16:03;3.60;;;1.20;;
5805;SDS011;2929;50.810;8.342;2022-09-09T07:18:31;5.23;;;1.57;;
5805;SDS011;2929;50.810;8.342;2022-09-09T07:20:58;4.80;;;1.50;;
5805;SDS011;2929;50.810;8.342;2022-09-09T07:23:27;4.70;;;1.43;;
5805;SDS011;2929;50.810;8.342;2022-09-09T07:25:55;6.20;;;1.50;;
5805;SDS011;2929;50.810;8.342;2022-09-09T07:28:23;8.33;;;1.77;;
5805;SDS011;2929;50.810;8.342;2022-09-09T07:30:56;13.13;;;1.80;;
5805;SDS011;2929;50.810;8.342;2022-09-09T07:33:25;5.53;;;1.40;;
5805;SDS011;2929;50.810;8.342;2022-09-09T07:36:01;3.80;;;1.20;;
5805;SDS011;2929;50.810;8.342;2022-09-09T07:38:30;2.30;;;1.20;;
5805;SDS011;2929;50.810;8.342;2022-09-09T07:41:02;5.47;;;1.63;;
5805;SDS011;2929;50.810;8.342;2022-09-09T07:43:31;10.30;;;1.80;;
5805;SDS011;2929;50.810;8.342;2022-09-09T07:46:00;9.40;;;1.57;;
5805;SDS011;2929;50.810;8.342;2022-09-09T07:48:27;2.90;;;1.20;;
5805;SDS011;2929;50.810;8.342;2022-09-09T07:51:03;7.70;;;1.80;;
5805;SDS011;2929;50.810;8.342;2022-09-09T07:53:32;4.90;;;1.80;;
5805;SDS011;2929;50.810;8.342;2022-09-09T07:56:06;5.47;;;1.40;;
5805;SDS011;2929;50.810;8.342;2022-09-09T07:58:35;5.20;;;1.20;;
5805;SDS011;2929;50.810;8.342;2022-09-09T08:01:07;7.90;;;1.20;;
5805;SDS011;2929;50.810;8.342;2022-09-09T08:03:36;20.50;;;2.17;;
5805;SDS011;2929;50.810;8.342;2022-09-09T08:06:04;3.20;;;1.50;;
5805;SDS011;2929;50.810;8.342;2022-09-09T08:08:34;7.00;;;1.80;;
5805;SDS011;2929;50.810;8.342;2022-09-09T08:11:05;5.87;;;1.20;;
5805;SDS011;2929;50.810;8.342;2022-09-09T08:13:38;8.00;;;1.47;;
5805;SDS011;2929;50.810;8.342;2022-09-09T08:16:08;7.07;;;1.60;;
5805;SDS011;2929;50.810;8.342;2022-09-09T08:18:37;4.00;;;1.17;;
5805;SDS011;2929;50.810;8.342;2022-09-09T08:21:06;7.87;;;1.43;;
5805;SDS011;2929;50.810;8.342;2022-09-09T08:23:37;11.43;;;2.17;;
5805;SDS011;2929;50.810;8.342;2022-09-09T08:26:07;3.67;;;1.40;;
5805;SDS011;2929;50.810;8.342;2022-09-09T08:28:37;2.47;;;1.30;;
5805;SDS011;2929;50.810;8.342;2022-09-09T08:31:08;4.87;;;1.43;;
5805;SDS011;2929;50.810;8.342;2022-09-09T08:33:38;6.70;;;1.37;;
5805;SDS011;2929;50.810;8.342;2022-09-09T08:36:09;4.93;;;1.23;;
5805;SDS011;2929;50.810;8.342;2022-09-09T08:38:41;4.07;;;1.20;;
5805;SDS011;2929;50.810;8.342;2022-09-09T08:41:30;4.53;;;1.20;;
5805;SDS011;2929;50.810;8.342;2022-09-09T08:44:07;2.83;;;1.10;;
5805;SDS011;2929;50.810;8.342;2022-09-09T08:46:44;5.37;;;1.03;;
5805;SDS011;2929;50.810;8.342;2022-09-09T08:49:23;5.83;;;1.70;;
5805;SDS011;2929;50.810;8.342;2022-09-09T08:52:04;7.20;;;1.40;;
5805;SDS011;2929;50.810;8.342;2022-09-09T08:54:41;9.10;;;1.77;;
5805;SDS011;2929;50.810;8.342;2022-09-09T08:57:09;13.20;;;1.63;;
5805;SDS011;2929;50.810;8.342;2022-09-09T08:59:44;7.50;;;1.43;;
5805;SDS011;2929;50.810;8.342;2022-09-09T09:02:15;4.63;;;1.10;;
5805;SDS011;2929;50.810;8.342;2022-09-09T09:04:54;11.07;;;1.70;;
5805;SDS011;2929;50.810;8.342;2022-09-09T09:07:36;7.23;;;1.77;;
5805;SDS011;2929;50.810;8.342;2022-09-09T09:10:16;7.00;;;1.23;;
5805;SDS011;2929;50.810;8.342;2022-09-09T09:12:51;9.33;;;1.17;;
5805;SDS011;2929;50.810;8.342;2022-09-09T09:15:21;3.27;;;1.00;;
5805;SDS011;2929;50.810;8.342;2022-09-09T09:17:54;5.40;;;1.50;;
5805;SDS011;2929;50.810;8.342;2022-09-09T09:20:32;3.07;;;1.30;;
5805;SDS011;2929;50.810;8.342;2022-09-09T09:23:04;3.37;;;1.10;;
5805;SDS011;2929;50.810;8.342;2022-09-09T09:25:34;2.73;;;1.33;;
5805;SDS011;2929;50.810;8.342;2022-09-09T09:28:12;3.90;;;1.03;;
5805;SDS011;2929;50.810;8.342;2022-09-09T09:30:48;13.53;;;2.00;;
5805;SDS011;2929;50.810;8.342;2022-09-09T09:33:21;7.70;;;1.57;;
5805;SDS011;2929;50.810;8.342;2022-09-09T09:35:53;6.30;;;1.10;;
5805;SDS011;2929;50.810;8.342;2022-09-09T09:38:22;1.73;;;0.90;;
5805;SDS011;2929;50.810;8.342;2022-09-09T09:40:56;7.57;;;1.00;;
5805;SDS011;2929;50.810;8.342;2022-09-09T09:43:26;7.73;;;1.40;;
5805;SDS011;2929;50.810;8.342;2022-09-09T09:45:58;4.73;;;1.30;;
5805;SDS011;2929;50.810;8.342;2022-09-09T09:48:27;3.67;;;1.20;;
5805;SDS011;2929;50.810;8.342;2022-09-09T09:50:56;7.37;;;1.67;;
5805;SDS011;2929;50.810;8.342;2022-09-09T09:53:27;10.60;;;1.60;;
5805;SDS011;2929;50.810;8.342;2022-09-09T09:55:59;8.70;;;1.27;;
5805;SDS011;2929;50.810;8.342;2022-09-09T09:58:29;1.77;;;0.97;;
5805;SDS011;2929;50.810;8.342;2022-09-09T10:01:00;8.50;;;1.30;;
5805;SDS011;2929;50.810;8.342;2022-09-09T10:03:31;3.77;;;1.00;;
5805;SDS011;2929;50.810;8.342;2022-09-09T10:06:03;7.87;;;1.30;;
5805;SDS011;2929;50.810;8.342;2022-09-09T10:08:33;3.80;;;0.87;;
5805;SDS011;2929;50.810;8.342;2022-09-09T10:11:20;3.77;;;1.30;;
5805;SDS011;2929;50.810;8.342;2022-09-09T10:13:57;5.23;;;1.10;;
5805;SDS011;2929;50.810;8.342;2022-09-09T10:16:38;3.93;;;1.00;;
5805;SDS011;2929;50.810;8.342;2022-09-09T10:19:20;6.40;;;1.13;;
5805;SDS011;2929;50.810;8.342;2022-09-09T10:22:02;4.27;;;0.97;;
5805;SDS011;2929;50.810;8.342;2022-09-09T10:24:49;4.60;;;1.00;;
5805;SDS011;2929;50.810;8.342;2022-09-09T10:27:49;5.90;;;1.20;;
5805;SDS011;2929;50.810;8.342;2022-09-09T10:30:39;6.70;;;1.03;;
5805;SDS011;2929;50.810;8.342;2022-09-09T10:33:22;5.70;;;0.90;;
5805;SDS011;2929;50.810;8.342;2022-09-09T10:35:58;3.60;;;1.33;;
5805;SDS011;2929;50.810;8.342;2022-09-09T10:38:34;4.20;;;0.97;;
5805;SDS011;2929;50.810;8.342;2022-09-09T10:41:14;2.50;;;0.90;;
5805;SDS011;2929;50.810;8.342;2022-09-09T10:44:12;4.27;;;1.00;;
5805;SDS011;2929;50.810;8.342;2022-09-09T10:46:54;4.53;;;1.30;;
5805;SDS011;2929;50.810;8.342;2022-09-09T10:49:42;5.20;;;0.90;;
5805;SDS011;2929;50.810;8.342;2022-09-09T10:52:26;7.57;;;1.17;;
5805;SDS011;2929;50.810;8.342;2022-09-09T10:55:00;4.30;;;0.80;;
5805;SDS011;2929;50.810;8.342;2022-09-09T10:57:36;3.43;;;1.00;;
5805;SDS011;2929;50.810;8.342;2022-09-09T11:00:10;4.30;;;0.90;;
5805;SDS011;2929;50.810;8.342;2022-09-09T11:02:43;6.60;;;1.60;;
5805;SDS011;2929;50.810;8.342;2022-09-09T11:05:14;5.47;;;1.17;;
5805;SDS011;2929;50.810;8.342;2022-09-09T11:07:46;2.60;;;1.03;;
5805;SDS011;2929;50.810;8.342;2022-09-09T11:10:20;3.70;;;0.90;;
5805;SDS011;2929;50.810;8.342;2022-09-09T11:12:51;4.30;;;1.00;;
5805;SDS011;2929;50.810;8.342;2022-09-09T11:15:28;5.70;;;1.50;;
5805;SDS011;2929;50.810;8.342;2022-09-09T11:17:58;2.00;;;0.90;;
5805;SDS011;2929;50.810;8.342;2022-09-09T11:20:28;3.97;;;0.90;;
5805;SDS011;2929;50.810;8.342;2022-09-09T11:22:59;3.97;;;0.90;;
5805;SDS011;2929;50.810;8.342;2022-09-09T11:25:30;2.10;;;0.70;;
5805;SDS011;2929;50.810;8.342;2022-09-09T11:28:12;2.47;;;0.90;;
5805;SDS011;2929;50.810;8.342;2022-09-09T11:30:55;4.90;;;1.00;;
5805;SDS011;2929;50.810;8.342;2022-09-09T11:33:41;4.30;;;1.03;;
5805;SDS011;2929;50.810;8.342;2022-09-09T11:36:27;2.20;;;0.90;;
5805;SDS011;2929;50.810;8.342;2022-09-09T11:39:27;5.07;;;1.10;;
5805;SDS011;2929;50.810;8.342;2022-09-09T11:42:21;6.00;;;1.23;;
5805;SDS011;2929;50.810;8.342;2022-09-09T11:44:50;3.23;;;1.17;;
5805;SDS011;2929;50.810;8.342;2022-09-09T11:47:21;3.43;;;1.10;;
5805;SDS011;2929;50.810;8.342;2022-09-09T11:49:55;8.00;;;1.30;;
5805;SDS011;2929;50.810;8.342;2022-09-09T11:52:36;3.30;;;1.33;;
5805;SDS011;2929;50.810;8.342;2022-09-09T11:55:09;4.10;;;0.90;;
5805;SDS011;2929;50.810;8.342;2022-09-09T11:57:38;4.60;;;1.07;;
5805;SDS011;2929;50.810;8.342;2022-09-09T12:00:06;4.77;;;1.00;;
5805;SDS011;2929;50.810;8.342;2022-09-09T12:02:49;2.83;;;0.90;;
5805;SDS011;2929;50.810;8.342;2022-09-09T12:05:16;1.20;;;0.90;;
5805;SDS011;2929;50.810;8.342;2022-09-09T12:07:47;3.07;;;0.80;;
5805;SDS011;2929;50.810;8.342;2022-09-09T12:10:22;1.27;;;0.80;;
5805;SDS011;2929;50.810;8.342;2022-09-09T12:12:53;4.10;;;0.83;;
5805;SDS011;2929;50.810;8.342;2022-09-09T12:15:22;3.87;;;1.07;;
5805;SDS011;2929;50.810;8.342;2022-09-09T12:17:54;6.63;;;1.43;;
5805;SDS011;2929;50.810;8.342;2022-09-09T12:20:26;4.23;;;1.63;;
5805;SDS011;2929;50.810;8.342;2022-09-09T12:23:03;1.43;;;0.93;;
5805;SDS011;2929;50.810;8.342;2022-09-09T12:25:49;4.90;;;1.10;;
5805;SDS011;2929;50.810;8.342;2022-09-09T12:28:27;3.47;;;1.20;;
5805;SDS011;2929;50.810;8.342;2022-09-09T12:31:08;3.37;;;1.00;;
5805;SDS011;2929;50.810;8.342;2022-09-09T12:33:44;4.03;;;1.27;;
5805;SDS011;2929;50.810;8.342;2022-09-09T12:36:13;8.10;;;1.33;;
5805;SDS011;2929;50.810;8.342;2022-09-09T12:38:44;3.40;;;0.93;;
5805;SDS011;2929;50.810;8.342;2022-09-09T12:41:20;3.07;;;0.73;;
5805;SDS011;2929;50.810;8.342;2022-09-09T12:43:49;8.10;;;0.97;;
5805;SDS011;2929;50.810;8.342;2022-09-09T12:46:20;2.73;;;0.90;;
5805;SDS011;2929;50.810;8.342;2022-09-09T12:48:56;4.00;;;0.90;;
5805;SDS011;2929;50.810;8.342;2022-09-09T12:51:24;4.23;;;1.10;;
5805;SDS011;2929;50.810;8.342;2022-09-09T12:53:54;5.00;;;1.83;;
5805;SDS011;2929;50.810;8.342;2022-09-09T12:56:25;5.47;;;1.20;;
5805;SDS011;2929;50.810;8.342;2022-09-09T12:58:55;2.40;;;1.07;;
5805;SDS011;2929;50.810;8.342;2022-09-09T13:01:25;8.40;;;2.50;;
5805;SDS011;2929;50.810;8.342;2022-09-09T13:03:54;1.23;;;0.80;;
5805;SDS011;2929;50.810;8.342;2022-09-09T13:06:24;10.50;;;2.93;;
5805;SDS011;2929;50.810;8.342;2022-09-09T13:08:53;2.40;;;0.80;;
5805;SDS011;2929;50.810;8.342;2022-09-09T13:11:23;1.43;;;0.90;;
5805;SDS011;2929;50.810;8.342;2022-09-09T13:13:56;4.43;;;1.03;;
5805;SDS011;2929;50.810;8.342;2022-09-09T13:16:26;2.77;;;0.80;;
5805;SDS011;2929;50.810;8.342;2022-09-09T13:18:57;1.63;;;1.17;;
5805;SDS011;2929;50.810;8.342;2022-09-09T13:21:33;3.67;;;1.20;;
5805;SDS011;2929;50.810;8.342;2022-09-09T13:24:03;4.00;;;1.03;;
5805;SDS011;2929;50.810;8.342;2022-09-09T13:26:36;2.90;;;0.90;;
5805;SDS011;2929;50.810;8.342;2022-09-09T13:29:08;2.10;;;0.80;;
5805;SDS011;2929;50.810;8.342;2022-09-09T13:31:44;2.23;;;0.80;;
5805;SDS011;2929;50.810;8.342;2022-09-09T13:34:12;4.43;;;1.07;;
5805;SDS011;2929;50.810;8.342;2022-09-09T13:36:40;2.97;;;1.13;;
5805;SDS011;2929;50.810;8.342;2022-09-09T13:39:13;5.53;;;0.90;;
5805;SDS011;2929;50.810;8.342;2022-09-09T13:41:48;1.57;;;0.80;;
5805;SDS011;2929;50.810;8.342;2022-09-09T13:44:17;1.90;;;0.67;;
5805;SDS011;2929;50.810;8.342;2022-09-09T13:46:59;3.80;;;1.13;;
5805;SDS011;2929;50.810;8.342;2022-09-09T13:49:29;5.30;;;1.57;;
5805;SDS011;2929;50.810;8.342;2022-09-09T13:52:05;3.80;;;0.93;;
5805;SDS011;2929;50.810;8.342;2022-09-09T13:54:46;6.23;;;0.87;;
5805;SDS011;2929;50.810;8.342;2022-09-09T13:57:17;3.63;;;1.00;;
5805;SDS011;2929;50.810;8.342;2022-09-09T13:59:47;1.23;;;0.80;;
5805;SDS011;2929;50.810;8.342;2022-09-09T14:02:15;6.60;;;1.10;;
5805;SDS011;2929;50.810;8.342;2022-09-09T14:04:43;5.63;;;1.00;;
5805;SDS011;2929;50.810;8.342;2022-09-09T14:07:11;4.43;;;0.90;;
5805;SDS011;2929;50.810;8.342;2022-09-09T14:09:39;2.57;;;0.77;;
5805;SDS011;2929;50.810;8.342;2022-09-09T14:12:08;3.77;;;1.00;;
5805;SDS011;2929;50.810;8.342;2022-09-09T14:14:38;1.57;;;1.00;;
5805;SDS011;2929;50.810;8.342;2022-09-09T14:17:07;2.83;;;1.37;;
5805;SDS011;2929;50.810;8.342;2022-09-09T14:19:34;1.93;;;0.80;;
5805;SDS011;2929;50.810;8.342;2022-09-09T14:22:02;2.77;;;1.60;;
5805;SDS011;2929;50.810;8.342;2022-09-09T14:24:29;2.43;;;0.80;;
5805;SDS011;2929;50.810;8.342;2022-09-09T14:26:57;2.77;;;0.90;;
5805;SDS011;2929;50.810;8.342;2022-09-09T14:29:24;3.63;;;0.97;;
5805;SDS011;2929;50.810;8.342;2022-09-09T14:31:53;2.83;;;0.83;;
5805;SDS011;2929;50.810;8.342;2022-09-09T14:34:20;3.17;;;0.70;;
5805;SDS011;2929;50.810;8.342;2022-09-09T14:36:47;4.10;;;1.00;;
5805;SDS011;2929;50.810;8.342;2022-09-09T14:39:14;13.20;;;1.20;;
5805;SDS011;2929;50.810;8.342;2022-09-09T14:41:42;3.77;;;0.80;;
5805;SDS011;2929;50.810;8.342;2022-09-09T14:44:09;5.60;;;1.30;;
5805;SDS011;2929;50.810;8.342;2022-09-09T14:46:36;3.47;;;0.97;;
5805;SDS011;2929;50.810;8.342;2022-09-09T14:49:05;3.53;;;0.80;;
5805;SDS011;2929;50.810;8.342;2022-09-09T14:51:33;7.67;;;1.20;;
5805;SDS011;2929;50.810;8.342;2022-09-09T14:54:00;1.20;;;1.10;;
5805;SDS011;2929;50.810;8.342;2022-09-09T14:56:27;2.90;;;1.17;;
5805;SDS011;2929;50.810;8.342;2022-09-09T14:58:56;2.70;;;0.83;;
5805;SDS011;2929;50.810;8.342;2022-09-09T15:01:26;1.20;;;0.80;;
5805;SDS011;2929;50.810;8.342;2022-09-09T15:03:54;2.70;;;0.90;;
5805;SDS011;2929;50.810;8.342;2022-09-09T15:06:24;2.30;;;0.90;;
5805;SDS011;2929;50.810;8.342;2022-09-09T15:08:53;3.93;;;0.90;;
5805;SDS011;2929;50.810;8.342;2022-09-09T15:11:23;1.40;;;0.80;;
5805;SDS011;2929;50.810;8.342;2022-09-09T15:13:53;2.07;;;0.80;;
5805;SDS011;2929;50.810;8.342;2022-09-09T15:19:16;9.03;;;1.07;;
5805;SDS011;2929;50.810;8.342;2022-09-09T15:21:44;4.00;;;1.00;;
5805;SDS011;2929;50.810;8.342;2022-09-09T15:24:11;5.73;;;0.87;;
5805;SDS011;2929;50.810;8.342;2022-09-09T15:26:38;4.50;;;0.97;;
5805;SDS011;2929;50.810;8.342;2022-09-09T15:29:07;2.40;;;1.17;;
5805;SDS011;2929;50.810;8.342;2022-09-09T15:31:34;2.97;;;0.70;;
5805;SDS011;2929;50.810;8.342;2022-09-09T15:34:02;4.73;;;0.90;;
5805;SDS011;2929;50.810;8.342;2022-09-09T15:36:31;1.23;;;0.77;;
5805;SDS011;2929;50.810;8.342;2022-09-09T15:39:01;0.60;;;0.60;;
5805;SDS011;2929;50.810;8.342;2022-09-09T15:41:30;1.27;;;0.60;;
5805;SDS011;2929;50.810;8.342;2022-09-09T15:43:58;1.70;;;0.60;;
5805;SDS011;2929;50.810;8.342;2022-09-09T15:49:02;0.77;;;0.77;;
5805;SDS011;2929;50.810;8.342;2022-09-09T15:51:31;1.03;;;0.70;;